createdAt,value
2022-10-09T00:00:24.289Z,5.90
2022-10-09T00:05:24.215Z,5.90
2022-10-09T00:10:24.205Z,6.30
2022-10-09T00:15:24.114Z,5.90
2022-10-09T00:20:24.059Z,6.00
2022-10-09T00:25:24.168Z,6.10
2022-10-09T00:30:23.967Z,6.90
2022-10-09T00:35:24.055Z,6.70
2022-10-09T00:40:23.885Z,6.40
2022-10-09T00:45:24.958Z,8.00
2022-10-09T00:50:23.885Z,7.90
2022-10-09T00:55:23.696Z,7.00
2022-10-09T01:00:23.630Z,7.70
2022-10-09T01:05:23.563Z,7.70
2022-10-09T01:10:23.550Z,6.70
2022-10-09T01:15:23.654Z,7.10
2022-10-09T01:20:23.474Z,6.70
2022-10-09T01:25:23.351Z,6.10
2022-10-09T01:30:23.393Z,6.50
2022-10-09T01:35:23.368Z,6.40
2022-10-09T01:40:23.275Z,7.10
2022-10-09T01:45:23.232Z,7.30
2022-10-09T01:50:23.296Z,7.80
2022-10-09T01:55:23.219Z,7.00
2022-10-09T02:00:23.287Z,7.40
2022-10-09T02:05:23.006Z,7.30
2022-10-09T02:10:23.889Z,7.10
2022-10-09T02:15:22.821Z,7.20
2022-10-09T02:20:22.819Z,8.10
2022-10-09T02:25:22.708Z,7.40
2022-10-09T02:30:22.659Z,7.90
2022-10-09T02:35:22.580Z,7.70
2022-10-09T02:40:22.553Z,8.20
2022-10-09T02:45:22.526Z,7.90
2022-10-09T02:50:22.626Z,8.80
2022-10-09T02:55:23.531Z,7.50
2022-10-09T03:00:22.486Z,8.60
2022-10-09T03:05:22.349Z,7.60
2022-10-09T03:10:23.417Z,8.20
2022-10-09T03:15:22.275Z,8.50
2022-10-09T03:20:22.264Z,9.40
2022-10-09T03:25:22.111Z,9.30
2022-10-09T03:30:22.159Z,9.40
2022-10-09T03:35:21.955Z,9.70
2022-10-09T03:40:21.872Z,8.50
2022-10-09T03:45:21.833Z,8.30
2022-10-09T03:50:21.825Z,8.00
2022-10-09T03:55:21.760Z,8.00
2022-10-09T04:00:21.702Z,8.60
2022-10-09T04:05:21.767Z,8.40
2022-10-09T04:10:22.640Z,8.90
2022-10-09T04:15:21.648Z,8.50
2022-10-09T04:20:21.502Z,9.00
2022-10-09T04:25:21.549Z,10.40
2022-10-09T04:30:21.513Z,10.80
2022-10-09T04:35:21.315Z,12.20
2022-10-09T04:40:21.273Z,13.70
2022-10-09T04:45:21.230Z,9.60
2022-10-09T04:50:21.160Z,11.00
2022-10-09T04:55:21.113Z,9.70
2022-10-09T05:00:21.185Z,9.50
2022-10-09T05:05:20.976Z,9.50
2022-10-09T05:10:21.083Z,9.30
2022-10-09T05:15:20.958Z,9.50
2022-10-09T05:20:20.889Z,9.50
2022-10-09T05:25:20.979Z,11.00
2022-10-09T05:30:21.782Z,9.20
2022-10-09T05:35:21.008Z,9.60
2022-10-09T05:40:21.512Z,10.70
2022-10-09T05:45:20.664Z,10.10
2022-10-09T05:50:20.613Z,10.30
2022-10-09T05:55:20.550Z,10.00
2022-10-09T06:00:20.519Z,9.60
2022-10-09T06:05:20.518Z,9.40
2022-10-09T06:10:20.263Z,10.20
2022-10-09T06:15:20.487Z,10.30
2022-10-09T06:20:20.503Z,9.80
2022-10-09T06:25:21.235Z,10.50
2022-10-09T06:30:20.064Z,10.30
2022-10-09T06:57:28.184Z,13.60
2022-10-09T07:02:27.862Z,13.50
2022-10-09T07:07:27.783Z,20.60
2022-10-09T07:12:27.691Z,12.70
2022-10-09T07:17:27.687Z,18.60
2022-10-09T07:22:27.712Z,14.80
2022-10-09T07:27:27.493Z,11.00
2022-10-09T07:32:27.444Z,7.60
2022-10-09T07:37:27.456Z,8.00
2022-10-09T07:42:27.365Z,7.40
2022-10-09T07:47:27.274Z,6.20
2022-10-09T07:52:27.365Z,4.00
2022-10-09T07:57:27.278Z,3.80
2022-10-09T08:02:27.165Z,2.90
2022-10-09T08:07:30.311Z,3.10
2022-10-09T08:12:28.111Z,2.90
2022-10-09T08:17:27.120Z,2.70
2022-10-09T08:22:28.042Z,4.20
2022-10-09T08:27:26.915Z,2.70
2022-10-09T08:32:27.002Z,3.20
2022-10-09T08:37:26.909Z,2.20
2022-10-09T08:42:28.233Z,2.50
2022-10-09T08:47:27.770Z,2.30
2022-10-09T08:52:26.732Z,1.80
2022-10-09T08:57:26.490Z,2.50
2022-10-09T09:02:26.497Z,2.20
2022-10-09T09:07:26.418Z,2.70
2022-10-09T09:12:26.370Z,2.20
2022-10-09T09:17:26.294Z,2.30
2022-10-09T09:22:26.205Z,1.80
2022-10-09T09:27:26.157Z,2.20
2022-10-09T09:32:26.113Z,2.20
2022-10-09T09:37:26.092Z,2.60
2022-10-09T09:42:26.121Z,1.80
2022-10-09T09:47:25.932Z,2.40
2022-10-09T09:52:25.870Z,1.80
2022-10-09T09:57:34.667Z,1.60
2022-10-09T10:02:25.802Z,2.10
2022-10-09T10:07:25.694Z,1.90
2022-10-09T10:12:25.649Z,1.70
2022-10-09T10:17:25.604Z,2.00
2022-10-09T10:22:25.522Z,1.80
2022-10-09T10:27:25.463Z,1.90
2022-10-09T10:32:25.429Z,2.10
2022-10-09T10:37:25.447Z,1.90
2022-10-09T10:42:27.637Z,1.80
2022-10-09T10:47:25.318Z,1.60
2022-10-09T10:52:25.198Z,1.70
2022-10-09T10:57:25.146Z,1.80
2022-10-09T11:02:25.088Z,1.60
2022-10-09T11:07:25.038Z,1.40
2022-10-09T11:12:46.912Z,1.20
2022-10-09T11:17:25.954Z,1.40
2022-10-09T11:22:24.892Z,1.60
2022-10-09T11:27:24.848Z,1.60
2022-10-09T11:32:24.898Z,2.00
2022-10-09T11:37:24.794Z,1.90
2022-10-09T11:42:24.834Z,1.50
2022-10-09T11:47:24.690Z,1.30
2022-10-09T11:52:24.628Z,1.40
2022-10-09T11:57:24.560Z,1.20
2022-10-09T12:02:24.620Z,1.60
2022-10-09T12:07:24.471Z,1.70
2022-10-09T12:12:24.410Z,1.80
2022-10-09T12:17:24.369Z,1.40
2022-10-09T12:22:24.295Z,1.40
2022-10-09T12:27:24.223Z,1.50
2022-10-09T12:32:25.204Z,1.90
2022-10-09T12:37:24.121Z,1.40
2022-10-09T12:42:24.155Z,2.10
2022-10-09T12:47:23.996Z,1.10
2022-10-09T12:52:23.967Z,1.90
2022-10-09T12:57:26.867Z,1.40
2022-10-09T13:02:24.947Z,1.50
2022-10-09T13:07:23.807Z,1.70
2022-10-09T13:12:23.867Z,1.70
2022-10-09T13:17:23.719Z,1.70
2022-10-09T13:22:23.621Z,1.30
2022-10-09T13:27:23.580Z,1.50
2022-10-09T13:32:23.601Z,2.10
2022-10-09T13:37:23.532Z,1.90
2022-10-09T13:42:23.552Z,1.50
2022-10-09T13:47:24.609Z,1.50
2022-10-09T13:52:23.290Z,1.70
2022-10-09T13:57:23.312Z,1.60
2022-10-09T14:02:23.256Z,1.40
2022-10-09T14:07:23.179Z,1.60
2022-10-09T14:12:23.170Z,2.00
2022-10-09T14:17:23.020Z,1.50
2022-10-09T14:22:22.916Z,1.70
2022-10-09T14:27:23.830Z,1.60
2022-10-09T14:32:22.856Z,1.50
2022-10-09T14:37:41.232Z,1.40
2022-10-09T14:42:23.755Z,1.90
2022-10-09T14:47:22.835Z,1.40
2022-10-09T14:52:22.643Z,1.50
2022-10-09T14:57:22.623Z,1.40
2022-10-09T15:02:22.566Z,1.20
2022-10-09T15:07:22.547Z,2.20
2022-10-09T15:12:22.485Z,4.10
2022-10-09T15:17:22.417Z,2.30
2022-10-09T15:22:22.381Z,2.00
2022-10-09T15:27:22.262Z,1.80
2022-10-09T15:32:22.191Z,3.00
2022-10-09T15:37:22.260Z,3.70
2022-10-09T15:42:22.141Z,2.10
2022-10-09T15:47:39.253Z,2.00
2022-10-09T15:52:22.927Z,1.60
2022-10-09T16:00:04.423Z,2.80
2022-10-09T16:05:04.433Z,2.90
2022-10-09T16:10:04.378Z,5.80
2022-10-09T16:15:04.317Z,3.60
2022-10-09T16:20:04.277Z,1.80
2022-10-09T16:25:04.919Z,2.30
2022-10-09T16:30:04.256Z,4.70
2022-10-09T16:35:05.106Z,6.70
2022-10-09T16:40:03.997Z,4.60
2022-10-09T16:45:04.387Z,4.10
2022-10-09T16:50:04.008Z,7.40
2022-10-09T16:55:03.838Z,3.20
2022-10-09T17:00:03.891Z,18.00
2022-10-09T17:05:03.865Z,11.50
2022-10-09T17:10:03.649Z,7.10
2022-10-09T17:15:03.614Z,8.30
2022-10-09T17:20:03.715Z,8.90
2022-10-09T17:25:03.581Z,18.70
2022-10-09T17:30:03.487Z,9.80
2022-10-09T17:35:03.429Z,4.80
2022-10-09T17:40:03.427Z,6.40
2022-10-09T17:45:03.312Z,5.80
2022-10-09T17:50:03.321Z,10.00
2022-10-09T17:55:03.233Z,5.40
2022-10-09T18:00:03.123Z,39.50
2022-10-09T18:05:03.202Z,5.40
2022-10-09T18:10:03.002Z,8.00
2022-10-09T18:15:03.993Z,28.60
2022-10-09T18:20:03.017Z,18.40
2022-10-09T18:25:02.853Z,8.80
2022-10-09T18:30:02.803Z,7.70
2022-10-09T18:35:02.727Z,5.30
2022-10-09T18:40:02.695Z,6.40
2022-10-09T18:45:02.826Z,21.60
2022-10-09T18:50:02.654Z,10.90
2022-10-09T18:55:02.615Z,5.30
2022-10-09T19:00:02.451Z,4.60
2022-10-09T19:05:02.474Z,5.00
2022-10-09T19:10:02.344Z,3.60
2022-10-09T19:15:02.451Z,4.40
2022-10-09T19:20:02.411Z,4.60
2022-10-09T19:25:03.289Z,6.90
2022-10-09T19:30:02.132Z,7.70
2022-10-09T19:35:02.092Z,6.50
2022-10-09T19:40:02.081Z,6.70
2022-10-09T19:45:02.108Z,6.90
2022-10-09T19:50:02.078Z,8.80
2022-10-09T19:55:02.061Z,6.10
2022-10-09T20:00:01.845Z,7.80
2022-10-09T20:05:01.744Z,9.50
2022-10-09T20:10:01.812Z,12.90
2022-10-09T20:15:01.624Z,15.00
2022-10-09T20:20:01.662Z,7.60
2022-10-09T20:25:01.620Z,7.60
2022-10-09T20:30:01.529Z,7.10
2022-10-09T20:35:01.567Z,6.30
2022-10-09T20:40:01.434Z,7.10
2022-10-09T20:45:01.372Z,5.60
2022-10-09T20:50:01.406Z,5.30
2022-10-09T20:55:01.251Z,7.50
2022-10-09T21:00:01.167Z,6.40
2022-10-09T21:05:01.287Z,3.70
2022-10-09T21:10:01.118Z,3.80
2022-10-09T21:15:01.055Z,3.20
2022-10-09T21:20:00.967Z,3.00
2022-10-09T21:25:00.909Z,2.50
2022-10-09T21:30:00.783Z,2.70
2022-10-09T21:35:00.832Z,2.60
2022-10-09T21:40:00.775Z,2.70
2022-10-09T21:45:00.660Z,2.90
2022-10-09T21:50:01.751Z,2.10
2022-10-09T21:55:00.646Z,2.90
2022-10-09T22:00:00.562Z,4.60
2022-10-09T22:05:00.420Z,5.20
2022-10-09T22:10:00.404Z,6.50
2022-10-09T22:15:00.515Z,6.20
2022-10-09T22:20:00.463Z,5.40
2022-10-09T22:25:00.301Z,13.80
2022-10-09T22:30:00.248Z,5.50
2022-10-09T22:35:00.173Z,4.70
2022-10-09T22:40:00.091Z,3.90
2022-10-09T22:45:01.038Z,2.90
2022-10-09T22:49:59.917Z,3.00
2022-10-09T22:55:00.011Z,3.60
2022-10-09T22:59:59.799Z,2.70
2022-10-09T23:04:59.781Z,3.30
2022-10-09T23:09:59.727Z,2.40
2022-10-09T23:15:00.729Z,2.00
2022-10-09T23:19:59.726Z,2.20
2022-10-09T23:24:59.635Z,2.60
2022-10-09T23:30:00.525Z,2.40
2022-10-09T23:34:59.450Z,2.10
2022-10-09T23:39:59.633Z,1.90
2022-10-09T23:45:00.436Z,1.80
2022-10-09T23:49:59.451Z,2.00
2022-10-09T23:54:59.235Z,2.00
2022-10-09T23:59:59.181Z,2.00
